Time;durP1;ratioP1;P1;durP2;ratioP2;P2;SDS_P1;SDS_P2;PMS_P1;PMS_P2;Temp;Humidity;BMP_temperature;BMP_pressure;BME280_temperature;BME280_humidity;BME280_pressure;Samples;Min_cycle;Max_cycle;Signal;HPM_P1;HPM_P2
2023/09/03 00:01:35;;;;;;;2.03;1.75;;;;;;;23.89;58.76;100116.88;4954654;28;20617;-92
2023/09/03 00:04:00;;;;;;;3.45;1.58;;;;;;;23.69;59.13;100107.34;4972499;28;20037;-93
2023/09/03 00:06:26;;;;;;;6.05;1.98;;;;;;;23.55;59.01;100093.88;4972307;28;20030;-92
2023/09/03 00:08:51;;;;;;;1.98;1.38;;;;;;;23.87;58.93;100134.13;4954141;28;20026;-94
2023/09/03 00:11:17;;;;;;;1.48;1.00;;;;;;;24.02;58.52;100130.44;4954655;28;20579;-94
2023/09/03 00:13:45;;;;;;;2.90;1.70;;;;;;;23.89;58.48;100113.31;4954627;28;20045;-94
2023/09/03 00:16:11;;;;;;;3.58;1.38;;;;;;;23.72;58.08;100106.28;4954448;28;20520;-94
2023/09/03 00:18:37;;;;;;;3.83;1.58;;;;;;;23.73;58.45;100113.41;4955634;28;20066;-90
2023/09/03 00:21:04;;;;;;;2.05;1.38;;;;;;;23.69;58.43;100123.50;4972016;28;20422;-90
2023/09/03 00:23:31;;;;;;;2.85;2.38;;;;;;;23.80;58.37;100140.81;4970541;28;20062;-95
2023/09/03 00:25:58;;;;;;;4.07;1.83;;;;;;;23.50;58.26;100102.25;4972145;28;20034;-95
2023/09/03 00:28:25;;;;;;;2.13;1.88;;;;;;;23.63;58.41;100139.19;4955326;28;20030;-95
2023/09/03 00:31:02;;;;;;;1.60;0.98;;;;;;;23.64;58.27;100144.47;4970405;28;20031;-94
2023/09/03 00:33:28;;;;;;;6.03;1.63;;;;;;;23.58;58.31;100134.06;4972472;28;20030;-94
2023/09/03 00:35:53;;;;;;;2.05;1.10;;;;;;;23.51;58.46;100120.16;4954697;28;20034;-94
2023/09/03 00:38:19;;;;;;;1.13;1.08;;;;;;;23.65;58.24;100126.47;4972457;28;20474;-94
2023/09/03 00:40:44;;;;;;;3.22;1.75;;;;;;;23.60;58.37;100113.28;4953734;28;20046;-95
2023/09/03 00:43:10;;;;;;;3.88;2.25;;;;;;;23.58;58.54;100112.53;4954289;28;20106;-94
2023/09/03 00:45:35;;;;;;;3.03;1.42;;;;;;;23.39;58.97;100096.69;4970276;28;20035;-94
2023/09/03 00:48:01;;;;;;;3.83;1.48;;;;;;;23.53;58.83;100110.13;4971788;28;20035;-94
2023/09/03 00:50:28;;;;;;;1.58;1.10;;;;;;;23.47;59.44;100106.97;4955498;28;20061;-89
2023/09/03 00:52:55;;;;;;;2.42;1.20;;;;;;;23.50;59.86;100129.16;4971951;28;20027;-91
2023/09/03 00:55:21;;;;;;;2.25;1.33;;;;;;;23.36;60.05;100103.09;4971806;28;20027;-91
2023/09/03 00:57:48;;;;;;;2.70;1.95;;;;;;;23.47;60.50;100125.81;4972379;28;20038;-92
2023/09/03 01:00:15;;;;;;;1.77;1.35;;;;;;;23.34;60.65;100112.22;4979869;28;20039;-92
2023/09/03 01:02:44;;;;;;;7.25;2.08;;;;;;;23.04;60.80;100087.06;4986502;28;20026;-92
2023/09/03 01:05:10;;;;;;;4.95;2.47;;;;;;;22.94;60.89;100061.72;4982363;28;20038;-92
2023/09/03 01:07:36;;;;;;;2.42;1.30;;;;;;;23.15;60.87;100109.81;4964483;28;20114;-90
2023/09/03 01:10:01;;;;;;;3.28;2.80;;;;;;;23.21;60.64;100109.44;4982410;28;20038;-92
2023/09/03 01:12:38;;;;;;;4.63;2.10;;;;;;;23.14;60.61;100090.13;4980863;28;20039;-92
2023/09/03 01:15:16;;;;;;;2.33;1.98;;;;;;;23.23;60.41;100104.81;4981221;28;20027;-93
2023/09/03 01:17:56;;;;;;;3.20;1.52;;;;;;;23.17;60.36;100094.41;4973629;28;20042;-93
2023/09/03 01:20:30;;;;;;;7.45;1.40;;;;;;;23.34;59.55;100120.31;4974989;28;20130;-93
2023/09/03 01:23:29;;;;;;;1.60;1.23;;;;;;;22.96;59.09;100075.91;4975385;28;20042;-93
2023/09/03 01:26:11;;;;;;;3.78;1.67;;;;;;;22.98;59.22;100083.88;4975898;28;20038;-93
2023/09/03 01:28:40;;;;;;;3.13;2.00;;;;;;;22.96;59.50;100094.75;4975648;28;20035;-93
2023/09/03 01:31:15;;;;;;;1.90;1.20;;;;;;;23.10;59.22;100099.31;4975177;28;20041;-92
2023/09/03 01:33:43;;;;;;;2.63;1.95;;;;;;;23.12;58.84;100091.16;4975866;28;20038;-93
2023/09/03 01:36:09;;;;;;;4.70;2.08;;;;;;;23.19;58.61;100096.06;4973750;28;20031;-92
2023/09/03 01:38:39;;;;;;;3.10;2.30;;;;;;;23.19;58.61;100103.28;4958289;28;20081;-92
2023/09/03 01:41:05;;;;;;;3.40;2.03;;;;;;;22.91;59.29;100085.22;4975359;28;20129;-92
2023/09/03 01:43:32;;;;;;;2.15;1.73;;;;;;;22.99;59.58;100112.53;4975362;28;20026;-92
2023/09/03 01:46:03;;;;;;;2.35;1.95;;;;;;;22.96;59.40;100112.72;4974986;28;20042;-91
2023/09/03 01:48:59;;;;;;;2.33;1.50;;;;;;;22.84;59.85;100111.63;4975517;28;20481;-91
2023/09/03 01:51:51;;;;;;;2.75;1.65;;;;;;;22.95;59.60;100117.22;4974318;28;20477;-91
2023/09/03 01:54:30;;;;;;;3.60;1.88;;;;;;;22.81;59.53;100082.22;4974732;28;20046;-92
2023/09/03 01:56:58;;;;;;;1.73;1.30;;;;;;;22.94;60.09;100120.00;4975150;28;20121;-90
2023/09/03 01:59:38;;;;;;;5.75;1.88;;;;;;;23.01;59.73;100113.28;4975354;28;20034;-90
2023/09/03 02:02:05;;;;;;;4.88;2.05;;;;;;;22.93;60.17;100113.75;4975111;28;20034;-90
2023/09/03 02:04:30;;;;;;;2.75;1.85;;;;;;;22.80;60.09;100084.06;4975653;28;20030;-89
2023/09/03 02:06:56;;;;;;;2.00;1.50;;;;;;;22.82;60.40;100109.00;4974779;28;20041;-90
2023/09/03 02:09:22;;;;;;;2.80;1.70;;;;;;;23.04;60.35;100127.41;4976464;28;20089;-91
2023/09/03 02:11:47;;;;;;;2.63;1.60;;;;;;;22.89;60.42;100088.00;4975527;28;20490;-90
2023/09/03 02:14:13;;;;;;;3.28;2.08;;;;;;;22.99;60.41;100104.47;4974373;28;20023;-90
2023/09/03 02:16:38;;;;;;;4.50;2.75;;;;;;;22.92;60.62;100089.63;4976440;28;20027;-92
2023/09/03 02:19:05;;;;;;;3.88;1.30;;;;;;;22.86;60.55;100080.09;4975987;28;20458;-90
2023/09/03 02:21:30;;;;;;;2.05;1.75;;;;;;;22.57;61.03;100066.59;4975743;28;20058;-91
2023/09/03 02:23:56;;;;;;;3.70;2.72;;;;;;;22.74;61.10;100084.41;4975617;28;20502;-90
2023/09/03 02:26:21;;;;;;;3.10;1.25;;;;;;;22.77;61.28;100116.50;4957676;28;20075;-91
2023/09/03 02:28:47;;;;;;;2.85;2.40;;;;;;;22.36;60.95;100084.84;4976648;28;20416;-90
2023/09/03 02:31:12;;;;;;;2.63;1.50;;;;;;;22.31;61.09;100114.66;4973830;28;20081;-91
2023/09/03 02:33:38;;;;;;;4.25;2.13;;;;;;;22.14;61.61;100112.91;4973998;28;20121;-91
2023/09/03 02:36:04;;;;;;;3.60;2.15;;;;;;;22.03;61.84;100090.28;4973981;28;20062;-91
2023/09/03 02:38:29;;;;;;;2.47;2.28;;;;;;;22.04;62.34;100108.97;4973909;28;20459;-91
2023/09/03 02:40:54;;;;;;;5.90;2.30;;;;;;;21.88;62.43;100084.81;4973685;28;20114;-91
2023/09/03 02:43:20;;;;;;;5.80;2.63;;;;;;;21.56;62.50;100057.94;4973708;28;20030;-91
2023/09/03 02:45:45;;;;;;;3.90;2.30;;;;;;;21.69;62.61;100094.81;4973620;28;20035;-89
2023/09/03 02:48:11;;;;;;;4.95;2.25;;;;;;;21.74;62.68;100106.19;4973454;28;20023;-89
2023/09/03 02:50:38;;;;;;;2.63;1.15;;;;;;;21.59;62.82;100100.69;4973270;28;20039;-90
2023/09/03 02:53:05;;;;;;;3.63;2.25;;;;;;;21.55;62.67;100096.47;4973247;28;20038;-90
2023/09/03 02:55:30;;;;;;;2.55;2.05;;;;;;;21.66;62.32;100097.69;4973178;28;20031;-90
2023/09/03 02:57:56;;;;;;;3.03;1.92;;;;;;;21.56;62.59;100092.81;4973423;28;20027;-93
2023/09/03 03:00:23;;;;;;;4.13;2.15;;;;;;;21.59;62.64;100102.53;4973419;28;20039;-91
2023/09/03 03:02:48;;;;;;;3.58;1.90;;;;;;;21.62;62.78;100107.72;4972957;28;20035;-93
2023/09/03 03:05:14;;;;;;;4.60;1.80;;;;;;;21.51;62.95;100092.22;4978303;28;20026;-90
2023/09/03 03:07:44;;;;;;;2.17;1.77;;;;;;;21.35;63.27;100075.16;4992439;28;20042;-91
2023/09/03 03:10:10;;;;;;;3.95;2.28;;;;;;;21.60;63.54;100104.28;4992916;28;20038;-90
2023/09/03 03:12:36;;;;;;;2.95;1.77;;;;;;;21.69;63.59;100113.63;4992681;28;20042;-90
2023/09/03 03:15:02;;;;;;;2.08;1.13;;;;;;;21.77;63.40;100119.47;4992063;28;20378;-91
2023/09/03 03:17:28;;;;;;;3.30;2.08;;;;;;;21.76;63.70;100131.13;4992562;28;20112;-92
2023/09/03 03:19:54;;;;;;;3.58;1.92;;;;;;;21.79;64.19;100136.34;4992219;28;20030;-92
2023/09/03 03:22:19;;;;;;;3.30;2.30;;;;;;;21.67;64.83;100135.19;4992182;28;20101;-91
2023/09/03 03:24:45;;;;;;;2.60;1.35;;;;;;;21.63;64.57;100110.34;4992345;28;20105;-89
2023/09/03 03:27:10;;;;;;;5.13;1.33;;;;;;;21.58;65.07;100115.09;4992434;28;20038;-92
2023/09/03 03:29:36;;;;;;;1.50;1.40;;;;;;;21.60;64.63;100118.56;4991993;28;20045;-91
2023/09/03 03:32:01;;;;;;;5.90;3.60;;;;;;;21.31;65.55;100095.06;4974689;28;20040;-93
2023/09/03 03:34:27;;;;;;;2.03;1.27;;;;;;;21.19;65.61;100086.72;4991556;28;20519;-93
2023/09/03 03:36:53;;;;;;;4.00;2.05;;;;;;;21.42;65.29;100115.00;4992070;28;20089;-93
2023/09/03 03:39:19;;;;;;;3.88;1.25;;;;;;;21.57;65.13;100137.50;4991965;28;20121;-90
2023/09/03 03:41:45;;;;;;;2.63;1.63;;;;;;;21.53;64.66;100108.22;4991322;28;20615;-90
2023/09/03 03:44:12;;;;;;;3.58;2.30;;;;;;;21.58;64.70;100128.50;4990838;28;20110;-90
2023/09/03 03:46:37;;;;;;;4.03;1.80;;;;;;;21.61;64.33;100141.78;4991341;28;20109;-90
2023/09/03 03:49:03;;;;;;;3.08;2.10;;;;;;;21.62;63.76;100118.47;4991779;28;20116;-90
2023/09/03 03:51:29;;;;;;;4.70;2.28;;;;;;;21.53;64.35;100114.44;4991454;28;20062;-91
2023/09/03 03:53:55;;;;;;;3.17;1.70;;;;;;;21.71;64.14;100123.34;4991217;28;20030;-90
2023/09/03 03:56:21;;;;;;;3.97;1.90;;;;;;;21.51;63.84;100091.34;4991209;28;20068;-90
2023/09/03 03:58:47;;;;;;;3.85;2.67;;;;;;;21.64;64.34;100146.09;4991226;28;20069;-90
2023/09/03 04:01:18;;;;;;;3.55;1.90;;;;;;;21.41;64.63;100112.41;4991383;28;20517;-91
2023/09/03 04:03:51;;;;;;;3.28;2.28;;;;;;;21.34;64.86;100103.81;4991677;28;20496;-91
2023/09/03 04:06:17;;;;;;;4.57;2.47;;;;;;;21.50;65.22;100127.19;4991429;28;20034;-90
2023/09/03 04:08:46;;;;;;;11.98;6.03;;;;;;;21.66;64.59;100121.84;4991615;28;20029;-92
2023/09/03 04:11:14;;;;;;;8.55;3.25;;;;;;;21.33;65.24;100107.44;4991122;28;20041;-90
2023/09/03 04:13:40;;;;;;;8.68;4.53;;;;;;;21.42;65.33;100124.88;4990828;28;20030;-90
2023/09/03 04:16:07;;;;;;;28.95;13.48;;;;;;;21.23;65.12;100087.44;4991309;28;20690;-91
2023/09/03 04:18:34;;;;;;;9.82;6.82;;;;;;;21.46;65.00;100130.00;4991014;28;20072;-89
2023/09/03 04:21:00;;;;;;;11.50;5.03;;;;;;;21.36;64.02;100104.59;4990987;28;20036;-89
2023/09/03 04:23:25;;;;;;;4.93;2.67;;;;;;;21.26;64.13;100095.31;4990967;28;20068;-89
2023/09/03 04:25:52;;;;;;;3.35;1.92;;;;;;;21.44;64.43;100117.59;4991088;28;20485;-89
2023/09/03 04:28:21;;;;;;;3.15;2.40;;;;;;;21.60;63.81;100118.56;4975450;28;20153;-93
2023/09/03 04:30:51;;;;;;;1.08;1.00;;;;;;;21.58;64.01;100117.78;4982456;28;20112;-89
2023/09/03 04:33:16;;;;;;;3.55;2.72;;;;;;;21.53;64.21;100092.13;4981775;28;20031;-88
2023/09/03 04:35:42;;;;;;;2.80;1.63;;;;;;;21.55;63.87;100087.53;4981587;28;20058;-89
2023/09/03 04:38:08;;;;;;;4.80;2.38;;;;;;;21.74;64.00;100106.19;4979535;28;20623;-91
2023/09/03 04:40:34;;;;;;;2.85;2.05;;;;;;;21.78;63.82;100091.63;4981381;28;20121;-90
2023/09/03 04:43:00;;;;;;;2.58;1.60;;;;;;;21.92;63.42;100105.19;4980403;28;20062;-90
2023/09/03 04:45:26;;;;;;;2.53;1.90;;;;;;;21.83;63.48;100094.97;4962210;28;20038;-90
2023/09/03 04:47:52;;;;;;;3.17;2.30;;;;;;;21.59;63.75;100059.59;4977841;28;20030;-89
2023/09/03 04:50:17;;;;;;;4.03;1.73;;;;;;;21.48;63.78;100061.97;4977224;28;20034;-90
2023/09/03 04:52:44;;;;;;;5.18;2.75;;;;;;;21.90;63.31;100088.28;4981604;28;20058;-90
2023/09/03 04:55:12;;;;;;;3.88;2.05;;;;;;;21.86;62.39;100089.41;4980698;28;20029;-90
2023/09/03 04:57:38;;;;;;;3.67;2.25;;;;;;;21.98;61.88;100083.34;4971856;28;20031;-92
2023/09/03 05:00:04;;;;;;;2.28;1.98;;;;;;;22.15;61.47;100095.84;4972728;28;20041;-91
2023/09/03 05:02:30;;;;;;;4.45;2.40;;;;;;;21.87;61.16;100053.53;4953970;28;20093;-90
2023/09/03 05:04:55;;;;;;;3.42;1.98;;;;;;;22.10;61.16;100072.88;4971009;28;20031;-93
2023/09/03 05:07:21;;;;;;;4.60;3.22;;;;;;;22.17;61.26;100074.25;4971072;28;20394;-91
2023/09/03 05:09:46;;;;;;;3.65;2.35;;;;;;;22.37;60.85;100105.38;4977809;28;20560;-93
2023/09/03 05:12:12;;;;;;;3.95;2.28;;;;;;;22.35;60.39;100042.78;4986445;28;20030;-91
2023/09/03 05:14:37;;;;;;;3.22;2.50;;;;;;;22.53;59.81;100048.91;4980098;28;20093;-91
2023/09/03 05:17:03;;;;;;;1.80;1.40;;;;;;;22.62;59.93;100074.38;4975031;28;20034;-92
2023/09/03 05:19:28;;;;;;;4.25;2.33;;;;;;;22.77;59.24;100081.53;4978694;28;20026;-92
2023/09/03 05:21:54;;;;;;;1.65;1.17;;;;;;;22.91;59.01;100075.34;4975388;28;20019;-92
2023/09/03 05:24:19;;;;;;;6.05;2.55;;;;;;;22.99;57.68;100073.03;4977632;28;20054;-89
2023/09/03 05:26:44;;;;;;;3.55;2.30;;;;;;;23.25;57.59;100084.06;4980225;28;20467;-91
2023/09/03 05:29:10;;;;;;;2.63;1.88;;;;;;;22.99;57.34;100058.72;4985372;28;20620;-94
2023/09/03 05:31:35;;;;;;;2.92;1.95;;;;;;;23.26;57.69;100077.72;4989934;28;20460;-91
2023/09/03 05:34:02;;;;;;;2.30;1.60;;;;;;;23.49;56.71;100102.34;4973415;28;20038;-93
2023/09/03 05:36:27;;;;;;;3.95;2.20;;;;;;;23.44;56.42;100072.16;4990047;28;20597;-90
2023/09/03 05:38:53;;;;;;;3.40;1.92;;;;;;;23.67;56.07;100062.63;4972541;28;20038;-88
2023/09/03 05:41:18;;;;;;;4.82;2.00;;;;;;;23.98;55.66;100064.25;4979776;28;20038;-94
2023/09/03 05:43:44;;;;;;;4.20;2.13;;;;;;;24.21;54.82;100072.66;4971078;28;20030;-94
2023/09/03 05:46:10;;;;;;;4.72;1.35;;;;;;;24.37;53.99;100064.41;4984288;28;20927;-93
2023/09/03 05:48:35;;;;;;;3.25;2.15;;;;;;;24.39;53.89;100046.28;4970966;28;20074;-94
2023/09/03 05:51:05;;;;;;;3.28;2.05;;;;;;;24.87;53.22;100073.66;4972730;28;20474;-90
2023/09/03 05:53:35;;;;;;;4.53;2.28;;;;;;;24.86;52.58;100085.41;4971431;28;20053;-92
2023/09/03 05:56:11;;;;;;;2.90;1.50;;;;;;;25.07;52.48;100096.56;4956693;28;20084;-93
2023/09/03 05:58:37;;;;;;;3.08;1.88;;;;;;;25.47;52.20;100093.78;4968478;28;20041;-92
2023/09/03 06:01:07;;;;;;;3.45;1.85;;;;;;;25.26;51.87;100041.28;4971982;28;20076;-93
2023/09/03 06:03:33;;;;;;;3.67;2.28;;;;;;;25.75;51.59;100067.50;4970772;28;20038;-93
2023/09/03 06:06:05;;;;;;;8.23;2.47;;;;;;;25.81;50.23;100039.16;4989875;28;20054;-94
2023/09/03 06:08:49;;;;;;;2.35;1.67;;;;;;;26.23;50.24;100085.66;4962214;28;20039;-94
2023/09/03 06:11:14;;;;;;;2.77;2.03;;;;;;;26.43;49.50;100082.31;4975922;28;20035;-96
2023/09/03 06:13:40;;;;;;;2.80;1.55;;;;;;;26.70;48.97;100070.41;4975510;28;20141;-93
2023/09/03 06:16:05;;;;;;;8.40;2.53;;;;;;;27.13;48.12;100080.59;4964264;28;20031;-96
2023/09/03 06:18:31;;;;;;;4.07;2.38;;;;;;;27.48;47.73;100068.00;4973165;28;20500;-94
2023/09/03 06:20:56;;;;;;;4.15;2.22;;;;;;;27.85;46.41;100093.00;4960188;28;20084;-95
2023/09/03 06:23:26;;;;;;;3.22;1.95;;;;;;;27.43;46.96;100090.03;4975801;28;20148;-95
2023/09/03 06:25:51;;;;;;;7.72;3.50;;;;;;;27.44;46.77;100072.81;4976188;28;20608;-93
2023/09/03 06:28:18;;;;;;;3.78;1.83;;;;;;;27.31;46.07;100083.75;4975706;28;20035;-93
2023/09/03 06:30:44;;;;;;;3.20;1.92;;;;;;;27.26;46.47;100056.13;4975800;28;20484;-93
2023/09/03 06:33:12;;;;;;;2.92;2.00;;;;;;;27.62;46.77;100070.47;4975152;28;20061;-92
2023/09/03 06:35:38;;;;;;;2.92;1.88;;;;;;;27.55;45.83;100082.78;4987925;28;20190;-95
2023/09/03 06:38:04;;;;;;;2.13;1.52;;;;;;;27.98;46.13;100103.72;4967343;28;20512;-95
2023/09/03 06:40:31;;;;;;;3.20;1.55;;;;;;;28.40;44.54;100095.75;4944645;28;20038;-96
2023/09/03 06:42:57;;;;;;;2.72;1.48;;;;;;;28.63;43.68;100074.00;4969570;28;20034;-92
2023/09/03 06:45:23;;;;;;;3.15;1.77;;;;;;;28.51;43.36;100088.56;4983002;28;20026;-90
2023/09/03 06:47:49;;;;;;;3.78;2.20;;;;;;;28.75;43.70;100081.09;4978556;28;20045;-93
2023/09/03 06:50:14;;;;;;;4.15;2.25;;;;;;;29.15;43.98;100100.38;4981173;28;20566;-94
2023/09/03 06:52:40;;;;;;;2.72;1.75;;;;;;;29.44;43.75;100100.56;4978907;28;20031;-94
2023/09/03 06:55:06;;;;;;;3.13;1.90;;;;;;;29.44;43.15;100092.41;4982253;28;20038;-94
2023/09/03 06:57:32;;;;;;;1.85;1.33;;;;;;;29.48;43.54;100087.59;4982187;28;20034;-95
2023/09/03 06:59:58;;;;;;;3.53;2.28;;;;;;;29.62;42.47;100081.78;4983153;28;20022;-95
2023/09/03 07:02:25;;;;;;;3.05;1.77;;;;;;;29.51;41.81;100060.16;4993301;28;20105;-92
2023/09/03 07:04:50;;;;;;;2.88;1.92;;;;;;;29.57;42.70;100100.38;4964460;28;20081;-94
2023/09/03 07:07:16;;;;;;;6.40;2.15;;;;;;;28.96;43.15;100085.66;4963802;28;20469;-93
2023/09/03 07:09:41;;;;;;;3.17;2.20;;;;;;;29.09;43.02;100078.19;4975238;28;20101;-93
2023/09/03 07:12:07;;;;;;;2.30;1.42;;;;;;;29.69;42.66;100079.38;4974720;28;20050;-93
2023/09/03 07:14:33;;;;;;;2.38;1.67;;;;;;;29.96;42.00;100076.91;4992492;28;20109;-92
2023/09/03 07:17:00;;;;;;;2.63;1.67;;;;;;;29.73;42.16;100070.81;4974971;28;20062;-93
2023/09/03 07:19:26;;;;;;;2.65;1.98;;;;;;;30.09;43.00;100064.91;4975003;28;20592;-92
2023/09/03 07:21:51;;;;;;;4.10;2.05;;;;;;;30.35;40.53;100038.03;4976592;28;20026;-93
2023/09/03 07:24:17;;;;;;;2.72;2.10;;;;;;;30.43;40.45;100064.56;4983157;28;20039;-95
2023/09/03 07:26:43;;;;;;;2.60;1.40;;;;;;;30.77;41.78;100061.41;4964849;28;20042;-94
2023/09/03 07:29:09;;;;;;;3.08;1.90;;;;;;;30.96;40.75;100039.63;4972660;28;20473;-96
2023/09/03 07:31:40;;;;;;;2.95;2.10;;;;;;;30.85;39.99;100064.28;4965326;28;20030;-94
2023/09/03 07:34:07;;;;;;;4.18;1.83;;;;;;;31.46;38.40;100081.22;4964966;28;20066;-95
2023/09/03 07:36:33;;;;;;;3.85;1.55;;;;;;;31.54;38.69;100062.28;4981099;28;20034;-95
2023/09/03 07:38:58;;;;;;;9.27;1.75;;;;;;;31.73;38.40;100039.53;4962964;28;20045;-95
2023/09/03 07:41:24;;;;;;;3.50;1.60;;;;;;;31.93;37.58;100081.19;4964761;28;20045;-95
2023/09/03 07:43:51;;;;;;;2.75;1.58;;;;;;;31.33;36.98;100057.06;4962651;28;20031;-94
2023/09/03 07:46:19;;;;;;;3.35;1.98;;;;;;;31.15;37.39;100038.72;4979927;28;20131;-96
2023/09/03 07:48:45;;;;;;;1.92;1.67;;;;;;;31.06;36.94;100075.03;4955421;28;20027;-93
2023/09/03 07:51:14;;;;;;;5.13;2.00;;;;;;;31.48;37.87;100061.00;4974929;28;20053;-93
2023/09/03 07:53:40;;;;;;;5.25;2.05;;;;;;;32.00;36.49;100087.75;4992914;28;20057;-96
2023/09/03 07:56:06;;;;;;;2.72;2.35;;;;;;;31.70;37.16;100067.97;4991492;28;20034;-95
2023/09/03 07:58:31;;;;;;;4.43;2.55;;;;;;;31.23;37.05;100063.38;4974032;28;20536;-95
2023/09/03 08:00:57;;;;;;;7.60;1.83;;;;;;;31.02;36.35;100049.09;4991521;28;20035;-92
2023/09/03 08:03:31;;;;;;;3.13;1.95;;;;;;;31.35;35.69;100082.28;4974293;28;20035;-92
2023/09/03 08:05:58;;;;;;;5.80;1.27;;;;;;;31.57;36.48;100065.59;4972282;28;20088;-90
2023/09/03 08:08:25;;;;;;;3.65;2.15;;;;;;;31.46;36.67;100057.56;4969625;28;20038;-95
2023/09/03 08:10:51;;;;;;;2.33;1.48;;;;;;;32.10;35.31;100085.00;4967598;28;20034;-95
2023/09/03 08:13:16;;;;;;;6.53;3.33;;;;;;;32.66;35.50;100085.78;4963006;28;20039;-94
2023/09/03 08:15:42;;;;;;;2.75;1.80;;;;;;;32.61;35.12;100039.81;4974790;28;20031;-86
2023/09/03 08:18:07;;;;;;;2.83;2.30;;;;;;;32.19;33.40;100040.41;4981370;28;20041;-94
2023/09/03 08:20:34;;;;;;;2.35;1.67;;;;;;;32.16;33.47;100046.19;4980241;28;20096;-93
2023/09/03 08:23:01;;;;;;;2.15;1.17;;;;;;;32.58;33.18;100085.66;4976153;28;20051;-94
2023/09/03 08:25:29;;;;;;;1.83;1.23;;;;;;;32.81;32.85;100040.50;4972930;28;20046;-93
2023/09/03 08:27:55;;;;;;;2.03;1.30;;;;;;;33.29;32.58;100053.81;4954741;28;20042;-91
2023/09/03 08:30:21;;;;;;;3.20;1.42;;;;;;;33.56;31.70;100050.03;4984977;28;20861;-93
2023/09/03 08:32:47;;;;;;;2.30;1.55;;;;;;;33.39;32.15;100010.00;4954563;28;20078;-87
2023/09/03 08:35:13;;;;;;;2.28;1.27;;;;;;;33.33;30.96;100067.00;4971918;28;20038;-89
2023/09/03 08:37:38;;;;;;;4.45;1.42;;;;;;;33.21;29.28;100035.50;4954565;28;20043;-93
2023/09/03 08:40:05;;;;;;;2.78;1.73;;;;;;;33.05;29.02;100036.22;4954696;28;20042;-95
2023/09/03 08:42:31;;;;;;;1.42;0.85;;;;;;;33.27;29.23;100031.28;4952635;28;20027;-90
2023/09/03 08:45:03;;;;;;;2.60;1.63;;;;;;;32.94;31.62;100031.88;4954583;28;20057;-87
2023/09/03 08:47:29;;;;;;;1.65;1.10;;;;;;;32.83;31.44;100016.63;4954840;28;20404;-88
2023/09/03 08:50:02;;;;;;;2.00;1.20;;;;;;;33.09;29.84;100039.50;4972997;28;20039;-87
2023/09/03 08:52:28;;;;;;;1.98;1.40;;;;;;;32.99;30.99;100034.16;4972062;28;20031;-88
2023/09/03 08:54:55;;;;;;;2.90;1.75;;;;;;;32.79;30.50;100015.22;4972410;28;20041;-86
2023/09/03 08:57:26;;;;;;;3.35;1.55;;;;;;;32.80;32.26;100037.94;4971833;28;20510;-87
2023/09/03 08:59:51;;;;;;;2.60;1.42;;;;;;;32.62;29.47;100035.19;4971554;28;20042;-91
2023/09/03 09:02:18;;;;;;;3.38;1.25;;;;;;;32.60;29.72;100037.22;4973855;28;20493;-92
2023/09/03 09:04:44;;;;;;;2.83;1.30;;;;;;;32.45;28.52;99987.78;4989213;28;20026;-93
2023/09/03 09:07:10;;;;;;;1.60;1.23;;;;;;;32.86;29.12;100018.19;4971071;28;20553;-94
2023/09/03 09:09:36;;;;;;;3.20;2.25;;;;;;;32.93;28.50;100000.13;4988708;28;20034;-93
2023/09/03 09:12:11;;;;;;;2.08;1.40;;;;;;;32.98;29.72;100033.28;4970038;28;20146;-95
2023/09/03 09:14:53;;;;;;;2.40;1.15;;;;;;;33.37;29.56;100013.72;4988032;28;20070;-93
2023/09/03 09:17:18;;;;;;;3.65;1.83;;;;;;;32.80;28.00;99997.81;4970276;28;20122;-96
2023/09/03 09:19:44;;;;;;;0.88;0.82;;;;;;;32.63;28.58;99982.31;4969625;28;20058;-95
2023/09/03 09:22:10;;;;;;;9.98;2.72;;;;;;;32.24;29.39;99990.84;4951170;28;20030;-95
2023/09/03 09:24:45;;;;;;;1.98;1.55;;;;;;;32.05;29.93;100013.63;4969591;28;20050;-94
2023/09/03 09:27:16;;;;;;;2.63;0.90;;;;;;;31.97;31.25;99998.03;4970220;28;20034;-94
2023/09/03 09:29:43;;;;;;;3.10;1.25;;;;;;;31.93;28.96;99975.69;4970593;28;20482;-94
2023/09/03 09:32:23;;;;;;;2.08;1.55;;;;;;;32.16;29.21;99966.22;4953203;28;20042;-92
2023/09/03 09:34:49;;;;;;;0.85;0.55;;;;;;;31.64;26.20;99969.53;4971328;28;20497;-89
2023/09/03 09:37:15;;;;;;;1.60;0.68;;;;;;;31.70;26.53;99978.00;4971554;28;20042;-95
2023/09/03 09:39:50;;;;;;;1.98;1.00;;;;;;;31.22;26.65;99982.66;4976233;28;20497;-93
2023/09/03 09:42:18;;;;;;;1.38;0.68;;;;;;;31.03;27.23;99966.38;4964391;28;20172;-94
2023/09/03 09:44:50;;;;;;;0.52;0.52;;;;;;;31.69;29.89;99991.78;4968774;28;20031;-95
2023/09/03 09:47:20;;;;;;;2.13;1.15;;;;;;;31.77;26.53;99986.41;4984342;28;20049;-96
2023/09/03 09:49:47;;;;;;;2.17;1.10;;;;;;;32.01;28.01;99955.81;4976800;28;20054;-96
2023/09/03 09:52:15;;;;;;;1.15;0.73;;;;;;;32.39;26.17;99948.31;4959315;28;20043;-95
2023/09/03 09:54:42;;;;;;;0.50;0.40;;;;;;;32.58;25.84;99936.38;4961962;28;20058;-93
2023/09/03 09:57:15;;;;;;;2.33;1.35;;;;;;;32.69;26.69;99948.06;4974385;28;20512;-96
2023/09/03 09:59:50;;;;;;;0.68;0.50;;;;;;;32.83;24.62;99953.81;4960673;28;20035;-94
2023/09/03 10:02:16;;;;;;;;;;;;;;;32.43;24.98;99960.66;4961432;28;20482;-90
2023/09/03 10:04:47;;;;;;;1.85;0.90;;;;;;;32.19;25.03;99931.28;4975379;28;19941;-96
2023/09/03 10:07:14;;;;;;;2.72;1.05;;;;;;;32.40;24.80;99966.44;4973885;28;20066;-95
2023/09/03 10:09:41;;;;;;;1.13;0.52;;;;;;;32.48;24.49;99932.88;4940760;28;20104;-94
2023/09/03 10:12:09;;;;;;;2.10;1.00;;;;;;;32.27;25.00;99925.91;4973200;28;20049;-88
2023/09/03 10:14:35;;;;;;;1.58;1.05;;;;;;;32.26;25.29;99953.34;4974279;28;20097;-88
2023/09/03 10:17:06;;;;;;;0.60;0.60;;;;;;;32.41;25.35;99934.53;4974530;28;20035;-95
2023/09/03 10:19:47;;;;;;;1.65;1.30;;;;;;;32.24;24.67;99942.59;4973626;28;20105;-92
2023/09/03 10:22:18;;;;;;;1.67;0.70;;;;;;;32.03;25.75;99914.75;4974099;28;20122;-90
2023/09/03 10:24:49;;;;;;;0.95;0.80;;;;;;;31.80;25.88;99892.53;4973574;28;20039;-92
2023/09/03 10:27:19;;;;;;;2.35;1.25;;;;;;;32.44;25.60;99942.38;4973934;28;20114;-94
2023/09/03 10:29:48;;;;;;;1.45;1.15;;;;;;;32.42;25.04;99890.69;4965272;28;20181;-96
2023/09/03 10:32:15;;;;;;;1.10;0.68;;;;;;;32.65;25.72;99918.34;4959047;28;20042;-86
2023/09/03 10:34:42;;;;;;;1.50;0.90;;;;;;;32.56;25.58;99902.91;4988141;28;20019;-95
2023/09/03 10:37:12;;;;;;;2.92;1.70;;;;;;;32.25;25.36;99870.59;4964381;28;20035;-90
2023/09/03 10:39:48;;;;;;;1.45;1.02;;;;;;;32.42;24.61;99917.97;4975915;28;20045;-93
2023/09/03 10:42:23;;;;;;;1.77;0.88;;;;;;;31.80;25.63;99919.81;4969089;28;20462;-95
2023/09/03 10:44:53;;;;;;;0.68;0.63;;;;;;;31.95;25.57;99874.63;4958710;28;20039;-93
2023/09/03 10:47:19;;;;;;;1.42;0.70;;;;;;;32.25;25.88;99916.16;4967642;28;20421;-93
2023/09/03 10:49:47;;;;;;;0.85;0.65;;;;;;;32.12;25.60;99913.84;4970525;28;20114;-92
2023/09/03 10:52:30;;;;;;;0.98;0.77;;;;;;;32.30;25.14;99919.25;4967043;28;20426;-95
2023/09/03 10:55:12;;;;;;;0.73;0.60;;;;;;;31.73;26.58;99882.25;4957870;28;20038;-91
2023/09/03 10:57:40;;;;;;;0.88;0.65;;;;;;;32.00;25.59;99893.25;4975843;28;20121;-92
2023/09/03 11:00:06;;;;;;;2.60;1.10;;;;;;;32.24;26.15;99898.94;4992268;28;20049;-91
2023/09/03 11:02:35;;;;;;;6.85;0.85;;;;;;;32.49;26.33;99910.03;4975283;28;20030;-93
2023/09/03 11:05:20;;;;;;;2.90;1.98;;;;;;;32.45;24.79;99870.41;4975399;28;20412;-90
2023/09/03 11:08:07;;;;;;;2.05;0.98;;;;;;;32.45;25.77;99834.94;4974982;28;20058;-88
2023/09/03 11:10:36;;;;;;;1.73;1.00;;;;;;;32.94;26.06;99881.66;4974631;28;20030;-93
2023/09/03 11:13:04;;;;;;;0.95;0.70;;;;;;;32.64;25.83;99842.94;4993088;28;20054;-94
2023/09/03 11:15:29;;;;;;;2.35;1.58;;;;;;;32.82;26.06;99855.63;4975067;28;20096;-91
2023/09/03 11:17:56;;;;;;;1.80;0.85;;;;;;;32.89;24.75;99853.09;4975083;28;20460;-93
2023/09/03 11:20:35;;;;;;;1.38;0.90;;;;;;;32.49;25.61;99859.00;4975076;28;20038;-96
2023/09/03 11:23:04;;;;;;;1.40;0.77;;;;;;;32.10;25.25;99869.47;4974837;28;20141;-94
2023/09/03 11:25:34;;;;;;;1.98;1.10;;;;;;;32.69;24.54;99847.91;4974999;28;20511;-94
2023/09/03 11:28:00;;;;;;;1.08;0.77;;;;;;;32.59;25.28;99828.00;4974921;28;20046;-93
2023/09/03 11:30:26;;;;;;;1.75;0.95;;;;;;;32.38;25.32;99826.53;4992122;28;20045;-91